createdAt,value
2022-11-30T00:01:23.229Z,102064.06
2022-11-30T00:03:55.121Z,102058.81
2022-11-30T00:06:23.608Z,102064.06
2022-11-30T00:08:57.271Z,102069.38
2022-11-30T00:11:28.463Z,102071.16
2022-11-30T00:13:55.972Z,102065.06
2022-11-30T00:16:23.545Z,102068.63
2022-11-30T00:18:51.192Z,102067.00
2022-11-30T00:21:18.622Z,102070.53
2022-11-30T00:23:47.958Z,102070.53
2022-11-30T00:26:19.221Z,102071.38
2022-11-30T00:28:47.726Z,102076.63
2022-11-30T00:31:17.907Z,102065.25
2022-11-30T00:33:44.966Z,102063.53
2022-11-30T00:36:15.510Z,102068.69
2022-11-30T00:38:43.086Z,102072.28
2022-11-30T00:41:11.010Z,102067.00
2022-11-30T00:43:38.200Z,102065.25
2022-11-30T00:46:06.605Z,102067.88
2022-11-30T00:48:33.656Z,102081.88
2022-11-30T00:51:01.165Z,102074.78
2022-11-30T00:53:31.170Z,102069.50
2022-11-30T00:55:58.462Z,102078.22
2022-11-30T00:58:25.540Z,102073.88
2022-11-30T01:00:52.711Z,102073.88
2022-11-30T01:03:19.952Z,102078.22
2022-11-30T01:05:47.244Z,102075.59
2022-11-30T01:08:14.805Z,102079.91
2022-11-30T01:10:44.188Z,102085.16
2022-11-30T01:13:13.280Z,102086.03
2022-11-30T01:15:46.393Z,102087.78
2022-11-30T01:18:13.667Z,102085.97
2022-11-30T01:20:42.942Z,102078.97
2022-11-30T01:23:11.189Z,102090.38
2022-11-30T01:25:38.941Z,102089.47
2022-11-30T01:28:06.667Z,102089.50
2022-11-30T01:30:34.174Z,102088.66
2022-11-30T01:33:06.140Z,102089.50
2022-11-30T01:35:33.155Z,102093.03
2022-11-30T01:38:00.214Z,102088.66
2022-11-30T01:40:27.693Z,102087.84
2022-11-30T01:42:55.486Z,102084.34
2022-11-30T01:45:22.816Z,102087.00
2022-11-30T01:47:56.268Z,102094.09
2022-11-30T01:50:32.251Z,102091.53
2022-11-30T01:53:03.525Z,102090.63
2022-11-30T01:55:39.997Z,102088.91
2022-11-30T01:58:30.096Z,102091.56
2022-11-30T02:00:57.147Z,102100.28
2022-11-30T02:03:42.298Z,102101.19
2022-11-30T02:06:09.963Z,102112.56
2022-11-30T02:08:37.739Z,102107.38
2022-11-30T02:11:08.476Z,102102.13
2022-11-30T02:14:22.826Z,102103.09
2022-11-30T02:17:04.790Z,102104.88
2022-11-30T02:19:43.967Z,102106.63
2022-11-30T02:22:30.032Z,102109.25
2022-11-30T02:25:27.750Z,102106.69
2022-11-30T02:29:06.166Z,102116.28
2022-11-30T02:31:48.573Z,102113.66
2022-11-30T02:34:20.840Z,102108.38
2022-11-30T02:36:48.850Z,102110.16
2022-11-30T02:39:17.129Z,102111.03
2022-11-30T02:41:44.464Z,102108.44
2022-11-30T02:44:12.963Z,102112.84
2022-11-30T02:47:07.213Z,102112.00
2022-11-30T02:49:48.392Z,102122.56
2022-11-30T02:52:17.151Z,102125.22
2022-11-30T02:54:44.461Z,102116.50
2022-11-30T02:57:12.476Z,102117.44
2022-11-30T02:59:40.286Z,102127.06
2022-11-30T03:02:07.491Z,102116.53
2022-11-30T03:04:34.509Z,102119.13
2022-11-30T03:07:01.849Z,102116.50
2022-11-30T03:09:28.892Z,102118.25
2022-11-30T03:11:55.859Z,102121.75
2022-11-30T03:14:22.888Z,102115.63
2022-11-30T03:16:49.947Z,102114.78
2022-11-30T03:19:16.965Z,102118.28
2022-11-30T03:21:44.117Z,102121.75
2022-11-30T03:24:11.302Z,102122.59
2022-11-30T03:26:38.259Z,102124.25
2022-11-30T03:29:05.389Z,102130.44
2022-11-30T03:31:32.772Z,102127.75
2022-11-30T03:33:59.995Z,102114.59
2022-11-30T03:36:27.085Z,102122.44
2022-11-30T03:38:54.203Z,102121.56
2022-11-30T03:41:21.370Z,102125.91
2022-11-30T03:43:48.561Z,102124.16
2022-11-30T03:46:15.997Z,102120.59
2022-11-30T03:48:43.579Z,102115.34
2022-11-30T03:51:13.052Z,102119.72
2022-11-30T03:53:41.016Z,102126.72
2022-11-30T03:56:10.340Z,102132.81
2022-11-30T03:58:38.567Z,102120.59
2022-11-30T04:01:14.875Z,102122.34
2022-11-30T04:03:42.418Z,102128.44
2022-11-30T04:06:12.491Z,102114.31
2022-11-30T04:08:40.133Z,102124.75
2022-11-30T04:11:08.566Z,102120.38
2022-11-30T04:13:38.051Z,102123.84
2022-11-30T04:16:07.150Z,102127.25
2022-11-30T04:18:36.559Z,102129.00
2022-11-30T04:21:04.835Z,102125.47
2022-11-30T04:23:36.283Z,102123.69
2022-11-30T04:26:11.082Z,102127.16
2022-11-30T04:28:38.090Z,102123.56
2022-11-30T04:31:05.822Z,102122.59
2022-11-30T04:33:33.032Z,102127.81
2022-11-30T04:36:04.146Z,102129.50
2022-11-30T04:38:31.942Z,102123.31
2022-11-30T04:41:02.079Z,102127.69
2022-11-30T04:43:29.233Z,102132.94
2022-11-30T04:45:56.554Z,102127.59
2022-11-30T04:48:24.157Z,102135.47
2022-11-30T04:50:51.211Z,102141.56
2022-11-30T04:53:18.293Z,102145.06
2022-11-30T04:55:45.597Z,102134.53
2022-11-30T04:58:12.767Z,102138.09
2022-11-30T05:00:39.931Z,102131.97
2022-11-30T05:03:07.072Z,102138.97
2022-11-30T05:05:34.141Z,102139.84
2022-11-30T05:08:01.806Z,102134.59
2022-11-30T05:10:30.143Z,102133.75
2022-11-30T05:12:57.911Z,102140.72
2022-11-30T05:15:25.429Z,102140.69
2022-11-30T05:17:52.459Z,102141.56
2022-11-30T05:20:19.493Z,102144.19
2022-11-30T05:22:46.464Z,102145.06
2022-11-30T05:25:13.631Z,102143.28
2022-11-30T05:27:40.747Z,102136.28
2022-11-30T05:30:08.702Z,102144.16
2022-11-30T05:32:36.086Z,102140.59
2022-11-30T05:35:03.711Z,102148.47
2022-11-30T05:37:30.867Z,102149.31
2022-11-30T05:39:58.299Z,102158.09
2022-11-30T05:42:25.566Z,102153.66
2022-11-30T05:44:52.693Z,102160.63
2022-11-30T05:47:19.893Z,102158.00
2022-11-30T05:49:46.957Z,102158.84
2022-11-30T05:52:14.230Z,102164.03
2022-11-30T05:54:41.325Z,102165.75
2022-11-30T05:57:08.436Z,102169.22
2022-11-30T05:59:35.554Z,102160.38
2022-11-30T06:02:02.751Z,102168.25
2022-11-30T06:04:30.015Z,102168.25
2022-11-30T06:06:57.256Z,102173.50
2022-11-30T06:09:24.641Z,102175.22
2022-11-30T06:11:51.875Z,102185.72
2022-11-30T06:14:19.209Z,102180.41
2022-11-30T06:16:46.328Z,102180.34
2022-11-30T06:19:13.539Z,102177.72
2022-11-30T06:21:40.611Z,102185.53
2022-11-30T06:24:08.322Z,102189.06
2022-11-30T06:26:35.635Z,102188.16
2022-11-30T06:29:02.792Z,102187.28
2022-11-30T06:31:32.046Z,102185.53
2022-11-30T06:33:59.566Z,102187.28
2022-11-30T06:36:31.339Z,102182.00
2022-11-30T06:39:01.463Z,102174.97
2022-11-30T06:41:28.439Z,102180.97
2022-11-30T06:43:55.439Z,102181.81
2022-11-30T06:46:23.241Z,102181.78
2022-11-30T06:48:53.126Z,102183.53
2022-11-30T06:51:20.164Z,102183.47
2022-11-30T06:53:47.442Z,102200.09
2022-11-30T06:56:14.638Z,102200.97
2022-11-30T06:58:42.610Z,102195.69
2022-11-30T07:01:14.414Z,102198.31
2022-11-30T07:03:42.135Z,102198.31
2022-11-30T07:06:12.864Z,102200.03
2022-11-30T07:08:41.093Z,102207.06
2022-11-30T07:11:10.050Z,102194.84
2022-11-30T07:13:37.884Z,102210.63
2022-11-30T07:16:10.654Z,102199.28
2022-11-30T07:18:38.396Z,102208.94
2022-11-30T07:21:06.403Z,102202.78
2022-11-30T07:23:56.335Z,102218.66
2022-11-30T07:26:25.292Z,102209.81
2022-11-30T07:28:55.419Z,102223.94
2022-11-30T07:31:25.983Z,102225.72
2022-11-30T07:33:53.715Z,102231.00
2022-11-30T07:36:24.332Z,102224.06
2022-11-30T07:38:52.280Z,102230.28
2022-11-30T07:41:19.892Z,102232.09
2022-11-30T07:43:46.903Z,102232.19
2022-11-30T07:46:15.911Z,102239.31
2022-11-30T07:48:44.997Z,102236.78
2022-11-30T07:51:22.177Z,102235.94
2022-11-30T07:53:50.367Z,102247.41
2022-11-30T07:56:20.712Z,102249.22
2022-11-30T07:58:49.929Z,102247.53
2022-11-30T08:01:21.734Z,102250.31
2022-11-30T08:03:50.927Z,102248.63
2022-11-30T08:06:24.666Z,102249.56
2022-11-30T08:08:54.568Z,102251.50
2022-11-30T08:11:25.108Z,102252.69
2022-11-30T08:13:52.941Z,102257.25
2022-11-30T08:16:24.647Z,102251.22
2022-11-30T08:18:52.829Z,102255.84
2022-11-30T08:21:21.500Z,102253.34
2022-11-30T08:23:58.024Z,102261.28
2022-11-30T08:26:32.457Z,102263.09
2022-11-30T08:29:02.832Z,102263.97
2022-11-30T08:31:36.615Z,102259.66
2022-11-30T08:34:11.632Z,102265.91
2022-11-30T08:36:40.688Z,102266.00
2022-11-30T08:39:12.373Z,102267.88
2022-11-30T08:41:39.678Z,102276.69
2022-11-30T08:44:07.312Z,102278.50
2022-11-30T08:46:50.870Z,102281.19
2022-11-30T08:49:23.093Z,102282.94
2022-11-30T08:52:16.322Z,102279.41
2022-11-30T08:54:45.125Z,102290.75
2022-11-30T08:57:12.871Z,102289.00
2022-11-30T08:59:39.905Z,102285.56
2022-11-30T09:02:08.761Z,102284.81
2022-11-30T09:04:36.036Z,102293.72
2022-11-30T09:07:03.737Z,102290.38
2022-11-30T09:09:31.439Z,102290.38
2022-11-30T09:11:58.758Z,102295.47
2022-11-30T09:14:25.742Z,102297.03
2022-11-30T09:16:55.318Z,102292.53
2022-11-30T09:19:22.483Z,102298.59
2022-11-30T09:21:51.979Z,102294.94
2022-11-30T09:24:21.157Z,102302.06
2022-11-30T09:26:48.736Z,102303.22
2022-11-30T09:29:16.078Z,102299.94
2022-11-30T09:31:43.387Z,102307.16
2022-11-30T09:34:12.158Z,102304.66
2022-11-30T09:36:39.270Z,102310.06
2022-11-30T09:39:06.759Z,102300.47
2022-11-30T09:42:23.720Z,102301.53
2022-11-30T09:45:23.197Z,102311.50
2022-11-30T09:48:01.990Z,102304.75
2022-11-30T09:50:37.530Z,102301.47
2022-11-30T09:53:39.832Z,102295.47
2022-11-30T09:56:25.343Z,102297.28
2022-11-30T09:59:00.504Z,102303.63
2022-11-30T10:01:31.989Z,102307.03
2022-11-30T10:04:01.691Z,102297.41
2022-11-30T10:07:09.916Z,102301.84
2022-11-30T10:10:37.466Z,102302.81
2022-11-30T10:13:42.208Z,102304.88
2022-11-30T10:16:21.113Z,102294.72
2022-11-30T10:19:39.029Z,102298.31
2022-11-30T10:22:29.270Z,102297.56
2022-11-30T10:25:22.911Z,102291.63
2022-11-30T10:28:38.475Z,102292.72
2022-11-30T10:30:56.820Z,102289.25
2022-11-30T10:33:38.708Z,102285.09
2022-11-30T10:36:26.841Z,102279.13
2022-11-30T10:39:02.145Z,102283.63
2022-11-30T10:41:40.495Z,102276.78
2022-11-30T10:44:34.304Z,102274.28
2022-11-30T10:47:25.549Z,102272.59
2022-11-30T10:49:53.348Z,102268.28
2022-11-30T10:52:50.514Z,102267.47
2022-11-30T10:55:31.334Z,102261.25
2022-11-30T10:58:10.689Z,102267.47
2022-11-30T11:00:37.651Z,102262.25
2022-11-30T11:03:24.285Z,102262.41
2022-11-30T11:06:12.738Z,102258.06
2022-11-30T11:08:42.306Z,102260.72
2022-11-30T11:11:39.149Z,102259.94
2022-11-30T11:14:23.156Z,102260.81
2022-11-30T11:17:21.783Z,102259.06
2022-11-30T11:19:50.639Z,102256.50
2022-11-30T11:22:21.829Z,102260.16
2022-11-30T11:24:53.679Z,102252.59
2022-11-30T11:27:33.229Z,102254.53
2022-11-30T11:30:18.838Z,102258.91
2022-11-30T11:33:29.519Z,102265.06
2022-11-30T11:36:15.118Z,102256.16
2022-11-30T11:38:45.833Z,102256.06
2022-11-30T11:41:27.367Z,102262.97
2022-11-30T11:44:10.187Z,102249.63
2022-11-30T11:47:05.055Z,102261.00
2022-11-30T11:49:37.703Z,102263.50
2022-11-30T11:52:16.057Z,102267.84
2022-11-30T11:54:52.200Z,102265.19
2022-11-30T11:57:27.667Z,102264.31
2022-11-30T12:00:16.380Z,102262.56
2022-11-30T12:03:05.151Z,102263.47
2022-11-30T12:06:05.217Z,102260.84
2022-11-30T12:08:56.544Z,102254.72
2022-11-30T12:11:28.642Z,102253.78
2022-11-30T12:13:55.908Z,102254.56
2022-11-30T12:16:38.697Z,102253.59
2022-11-30T12:19:32.382Z,102250.72
2022-11-30T12:22:48.138Z,102250.38
2022-11-30T12:25:30.361Z,102249.13
2022-11-30T12:28:09.550Z,102254.03
2022-11-30T12:31:18.558Z,102259.91
2022-11-30T12:34:17.277Z,102251.84
2022-11-30T12:37:17.712Z,102263.16
2022-11-30T12:39:57.938Z,102249.00
2022-11-30T12:43:10.309Z,102253.34
2022-11-30T12:45:45.224Z,102261.22
2022-11-30T12:48:31.854Z,102257.75
2022-11-30T12:51:09.533Z,102262.97
2022-11-30T12:53:59.937Z,102268.94
2022-11-30T12:56:50.269Z,102266.31
2022-11-30T13:00:04.678Z,102262.19
2022-11-30T13:02:50.150Z,102264.09
2022-11-30T13:05:40.743Z,102263.25
2022-11-30T13:08:54.579Z,102269.63
2022-11-30T13:11:45.224Z,102268.75
2022-11-30T13:14:21.862Z,102270.44
2022-11-30T13:17:00.829Z,102264.13
2022-11-30T13:19:45.005Z,102268.66
2022-11-30T13:22:49.153Z,102277.59
2022-11-30T13:26:13.278Z,102281.97
2022-11-30T13:28:43.284Z,102267.94
2022-11-30T13:31:36.249Z,102271.44
2022-11-30T13:34:03.682Z,102266.13
2022-11-30T13:36:39.807Z,102273.06
2022-11-30T13:39:30.497Z,102276.47
2022-11-30T13:42:06.513Z,102282.53
2022-11-30T13:44:37.221Z,102271.91
2022-11-30T13:47:16.836Z,102273.59
2022-11-30T13:49:45.049Z,102272.75
2022-11-30T13:52:23.298Z,102284.91
2022-11-30T13:54:57.334Z,102275.13
2022-11-30T13:57:30.454Z,102275.13
2022-11-30T14:00:01.492Z,102281.19
2022-11-30T14:02:44.485Z,102282.00
2022-11-30T14:05:18.246Z,102285.50
2022-11-30T14:07:49.641Z,102284.59
2022-11-30T14:10:51.093Z,102284.59
2022-11-30T14:13:22.971Z,102287.25
2022-11-30T14:15:56.521Z,102292.50
2022-11-30T14:18:42.028Z,102291.47
2022-11-30T14:21:34.616Z,102294.84
2022-11-30T14:24:13.198Z,102289.47
2022-11-30T14:26:46.391Z,102302.50
2022-11-30T14:29:33.607Z,102304.16
2022-11-30T14:32:25.444Z,102297.03
2022-11-30T14:35:03.059Z,102304.88
2022-11-30T14:37:46.440Z,102299.53
2022-11-30T14:40:20.183Z,102308.22
2022-11-30T14:42:51.117Z,102308.06
2022-11-30T14:45:31.501Z,102310.63
2022-11-30T14:48:18.461Z,102310.47
2022-11-30T14:50:57.542Z,102309.50
2022-11-30T14:54:00.984Z,102305.91
2022-11-30T14:56:47.594Z,102306.69
2022-11-30T14:59:50.345Z,102310.22
2022-11-30T15:02:29.428Z,102306.66
2022-11-30T15:04:58.659Z,102304.88
2022-11-30T15:07:27.644Z,102310.06
2022-11-30T15:10:33.828Z,102304.66
2022-11-30T15:13:05.248Z,102313.38
2022-11-30T15:15:36.180Z,102312.44
2022-11-30T15:18:18.700Z,102308.75
2022-11-30T15:21:02.336Z,102303.41
2022-11-30T15:23:29.472Z,102306.81
2022-11-30T15:26:06.681Z,102310.31
2022-11-30T15:28:44.847Z,102308.47
2022-11-30T15:31:16.634Z,102308.38
2022-11-30T15:33:47.607Z,102300.34
2022-11-30T15:36:32.006Z,102313.41
2022-11-30T15:39:07.124Z,102305.31
2022-11-30T15:41:35.969Z,102305.16
2022-11-30T15:44:45.882Z,102314.69
2022-11-30T15:47:47.358Z,102311.03
2022-11-30T15:50:39.183Z,102304.75
2022-11-30T15:53:26.940Z,102314.25
2022-11-30T15:56:21.474Z,102313.22
2022-11-30T15:59:25.605Z,102316.59
2022-11-30T16:02:02.600Z,102314.78
2022-11-30T16:05:20.177Z,102328.78
2022-11-30T16:08:18.116Z,102330.50
2022-11-30T16:10:45.730Z,102331.31
2022-11-30T16:13:19.066Z,102327.69
2022-11-30T16:15:49.610Z,102334.63
2022-11-30T16:18:19.634Z,102336.38
2022-11-30T16:20:59.205Z,102342.41
2022-11-30T16:23:27.469Z,102337.13
2022-11-30T16:25:55.069Z,102345.88
2022-11-30T16:28:23.067Z,102344.91
2022-11-30T16:30:51.549Z,102348.31
2022-11-30T16:33:27.850Z,102350.00
2022-11-30T16:36:17.001Z,102354.38
2022-11-30T16:38:47.632Z,102355.22
2022-11-30T16:41:19.295Z,102353.53
2022-11-30T16:43:50.062Z,102354.41
2022-11-30T16:46:23.998Z,102356.19
2022-11-30T16:48:51.352Z,102361.44
2022-11-30T16:51:25.832Z,102361.44
2022-11-30T16:53:53.745Z,102357.94
2022-11-30T16:56:21.837Z,102359.72
2022-11-30T16:58:49.357Z,102364.94
2022-11-30T17:01:35.107Z,102362.38
2022-11-30T17:04:16.345Z,102367.63
2022-11-30T17:06:48.213Z,102368.50
2022-11-30T17:09:18.431Z,102379.09
2022-11-30T17:11:50.338Z,102383.34
2022-11-30T17:14:19.319Z,102384.19
2022-11-30T17:16:46.792Z,102380.69
2022-11-30T17:19:14.159Z,102382.41
2022-11-30T17:21:43.061Z,102382.41
2022-11-30T17:24:10.256Z,102380.63
2022-11-30T17:26:37.687Z,102382.31
2022-11-30T17:29:04.802Z,102384.91
2022-11-30T17:31:33.007Z,102383.94
2022-11-30T17:34:00.763Z,102383.88
2022-11-30T17:36:29.361Z,102376.91
2022-11-30T17:38:56.820Z,102379.53
2022-11-30T17:41:24.146Z,102385.66
2022-11-30T17:43:52.238Z,102377.81
2022-11-30T17:46:21.058Z,102390.06
2022-11-30T17:48:49.710Z,102380.41
2022-11-30T17:51:17.228Z,102379.59
2022-11-30T17:53:44.707Z,102382.16
2022-11-30T17:56:16.888Z,102386.50
2022-11-30T17:58:45.360Z,102387.41
2022-11-30T18:01:24.815Z,102391.75
2022-11-30T18:03:53.514Z,102388.25
2022-11-30T18:06:21.082Z,102391.72
2022-11-30T18:08:48.476Z,102388.16
2022-11-30T18:11:20.306Z,102382.00
2022-11-30T18:13:51.536Z,102395.16
2022-11-30T18:16:25.005Z,102397.75
2022-11-30T18:18:53.230Z,102392.41
2022-11-30T18:21:23.763Z,102398.50
2022-11-30T18:23:54.317Z,102404.63
2022-11-30T18:26:25.462Z,102405.47
2022-11-30T18:28:55.923Z,102406.38
2022-11-30T18:31:23.635Z,102407.22
2022-11-30T18:34:04.517Z,102410.72
2022-11-30T18:36:33.032Z,102412.41
2022-11-30T18:39:00.041Z,102414.09
2022-11-30T18:41:30.225Z,102414.09
2022-11-30T18:43:58.418Z,102421.97
2022-11-30T18:46:25.932Z,102414.09
2022-11-30T18:48:54.631Z,102414.94
2022-11-30T18:51:30.646Z,102421.03
2022-11-30T18:54:00.681Z,102427.16
2022-11-30T18:56:31.777Z,102423.66
2022-11-30T18:59:03.069Z,102427.06
2022-11-30T19:01:31.473Z,102426.97
2022-11-30T19:04:02.640Z,102428.59
2022-11-30T19:06:32.816Z,102427.63
2022-11-30T19:09:03.959Z,102425.69
2022-11-30T19:11:33.685Z,102430.91
2022-11-30T19:14:01.099Z,102429.03
2022-11-30T19:16:30.924Z,102427.13
2022-11-30T19:19:09.450Z,102430.44
2022-11-30T19:21:36.749Z,102431.19
2022-11-30T19:24:10.629Z,102429.31
2022-11-30T19:26:40.083Z,102432.00
2022-11-30T19:29:07.959Z,102439.94
2022-11-30T19:31:35.259Z,102436.47
2022-11-30T19:34:10.745Z,102435.63
2022-11-30T19:36:39.641Z,102440.16
2022-11-30T19:39:06.983Z,102438.44
2022-11-30T19:41:34.203Z,102434.97
2022-11-30T19:44:03.898Z,102435.94
2022-11-30T19:46:33.450Z,102441.19
2022-11-30T19:49:02.097Z,102437.72
2022-11-30T19:51:31.877Z,102435.94
2022-11-30T19:54:00.647Z,102442.97
2022-11-30T19:56:31.671Z,102440.34
2022-11-30T19:59:04.631Z,102461.41
2022-11-30T20:01:33.964Z,102443.91
2022-11-30T20:04:01.752Z,102445.78
2022-11-30T20:06:34.627Z,102456.31
2022-11-30T20:09:03.289Z,102460.66
2022-11-30T20:11:30.486Z,102459.78
2022-11-30T20:13:58.582Z,102454.53
2022-11-30T20:16:26.413Z,102460.66
2022-11-30T20:18:56.180Z,102456.25
2022-11-30T20:21:30.693Z,102451.91
2022-11-30T20:24:00.358Z,102450.19
2022-11-30T20:26:31.690Z,102456.38
2022-11-30T20:29:00.879Z,102455.47
2022-11-30T20:31:37.302Z,102460.72
2022-11-30T20:34:06.703Z,102465.97
2022-11-30T20:36:34.460Z,102458.94
2022-11-30T20:39:06.772Z,102459.78
2022-11-30T20:41:34.382Z,102458.00
2022-11-30T20:44:04.747Z,102464.03
2022-11-30T20:46:36.317Z,102461.50
2022-11-30T20:49:12.700Z,102450.13
2022-11-30T20:51:40.325Z,102459.63
2022-11-30T20:54:08.850Z,102462.25
2022-11-30T20:56:37.369Z,102463.06
2022-11-30T20:59:08.701Z,102466.50
2022-11-30T21:01:36.210Z,102470.03
2022-11-30T21:04:04.854Z,102470.03
2022-11-30T21:06:32.905Z,102458.69
2022-11-30T21:09:00.584Z,102461.41
2022-11-30T21:11:29.046Z,102468.41
2022-11-30T21:13:57.909Z,102470.13
2022-11-30T21:16:28.844Z,102472.88
2022-11-30T21:18:58.795Z,102481.63
2022-11-30T21:21:30.878Z,102481.50
2022-11-30T21:24:01.098Z,102479.72
2022-11-30T21:26:43.185Z,102473.59
2022-11-30T21:29:16.764Z,102481.44
2022-11-30T21:31:45.065Z,102476.16
2022-11-30T21:34:12.636Z,102473.53
2022-11-30T21:36:52.133Z,102470.03
2022-11-30T21:39:19.829Z,102479.53
2022-11-30T21:41:47.368Z,102478.56
2022-11-30T21:44:16.581Z,102478.56
2022-11-30T21:46:46.350Z,102474.16
2022-11-30T21:49:15.878Z,102472.38
2022-11-30T21:51:44.262Z,102464.50
2022-11-30T21:54:13.590Z,102467.97
2022-11-30T21:56:42.651Z,102464.41
2022-11-30T21:59:12.771Z,102464.34
2022-11-30T22:01:43.538Z,102467.91
2022-11-30T22:04:12.877Z,102472.31
2022-11-30T22:06:41.688Z,102466.22
2022-11-30T22:09:16.134Z,102469.78
2022-11-30T22:11:45.373Z,102470.69
2022-11-30T22:14:17.046Z,102462.81
2022-11-30T22:16:44.931Z,102467.13
2022-11-30T22:19:12.320Z,102476.72
2022-11-30T22:21:39.777Z,102476.72
2022-11-30T22:24:11.439Z,102478.44
2022-11-30T22:26:44.634Z,102478.34
2022-11-30T22:29:22.668Z,102477.41
2022-11-30T22:31:55.454Z,102472.06
2022-11-30T22:34:22.503Z,102475.47
2022-11-30T22:36:49.735Z,102483.34
2022-11-30T22:39:22.631Z,102483.28
2022-11-30T22:41:55.281Z,102482.44
2022-11-30T22:44:24.021Z,102481.63
2022-11-30T22:46:51.232Z,102486.91
2022-11-30T22:49:21.310Z,102493.94
2022-11-30T22:51:51.209Z,102491.31
2022-11-30T22:54:19.055Z,102487.88
2022-11-30T22:56:46.916Z,102490.38
2022-11-30T22:59:15.808Z,102492.97
2022-11-30T23:01:46.635Z,102493.78
2022-11-30T23:04:18.586Z,102486.75
2022-11-30T23:06:48.571Z,102490.25
2022-11-30T23:09:21.768Z,102494.66
2022-11-30T23:11:50.680Z,102488.59
2022-11-30T23:14:18.649Z,102489.47
2022-11-30T23:16:46.693Z,102492.00
2022-11-30T23:19:14.629Z,102491.00
2022-11-30T23:21:44.975Z,102490.00
2022-11-30T23:24:21.999Z,102492.53
2022-11-30T23:26:49.359Z,102490.75
2022-11-30T23:29:18.442Z,102488.81
2022-11-30T23:31:47.105Z,102479.13
2022-11-30T23:34:21.484Z,102475.47
2022-11-30T23:36:49.924Z,102477.16
2022-11-30T23:39:19.217Z,102477.09
2022-11-30T23:41:46.458Z,102480.56
2022-11-30T23:44:14.131Z,102486.63
2022-11-30T23:46:41.370Z,102490.09
2022-11-30T23:49:08.752Z,102481.25
2022-11-30T23:51:36.056Z,102485.53
2022-11-30T23:54:03.718Z,102485.47
2022-11-30T23:56:30.782Z,102489.78
2022-11-30T23:58:57.979Z,102488.03
